Time;durP1;ratioP1;P1;durP2;ratioP2;P2;SDS_P1;SDS_P2;PMS_P1;PMS_P2;Temp;Humidity;BMP_temperature;BMP_pressure;BME280_temperature;BME280_humidity;BME280_pressure;Samples;Min_cycle;Max_cycle;Signal;HPM_P1;HPM_P2
2023/01/20 00:03:34;;;;;;;32.40;21.30;;;;;;;0.20;100.00;101025.63;10443646;28;20033;-67
2023/01/20 00:08:35;;;;;;;33.60;21.70;;;;;;;0.23;100.00;101028.03;10444873;28;20033;-67
2023/01/20 00:13:35;;;;;;;38.45;25.45;;;;;;;0.24;100.00;101020.91;10461961;28;20127;-67
2023/01/20 00:18:37;;;;;;;32.40;22.73;;;;;;;0.17;100.00;101015.25;10427404;28;20472;-67
2023/01/20 00:23:37;;;;;;;28.40;19.15;;;;;;;0.09;100.00;101016.84;10461429;28;20167;-67
2023/01/20 00:28:38;;;;;;;29.85;19.90;;;;;;;0.19;100.00;101028.41;10427064;28;20425;-68
2023/01/20 00:33:39;;;;;;;35.03;22.20;;;;;;;0.18;100.00;101027.56;10442795;28;20064;-67
2023/01/20 00:38:39;;;;;;;24.48;18.52;;;;;;;0.14;100.00;101031.47;10460395;28;20032;-67
2023/01/20 00:43:40;;;;;;;33.15;23.23;;;;;;;0.11;100.00;101033.53;10459781;28;20485;-67
2023/01/20 00:48:44;;;;;;;44.83;23.27;;;;;;;0.11;100.00;101042.38;10443323;28;20123;-67
2023/01/20 00:53:44;;;;;;;30.35;22.20;;;;;;;0.14;100.00;101035.94;10446344;28;20043;-67
2023/01/20 00:58:45;;;;;;;33.70;21.08;;;;;;;0.17;100.00;101041.88;10460196;28;20400;-67
2023/01/20 01:03:45;;;;;;;30.60;21.13;;;;;;;0.19;100.00;101045.25;10442158;28;20116;-68
2023/01/20 01:08:46;;;;;;;31.63;19.75;;;;;;;0.12;100.00;101052.03;10459407;28;20481;-68
2023/01/20 01:13:46;;;;;;;29.70;19.80;;;;;;;0.14;100.00;101050.09;10459610;28;20036;-68
2023/01/20 01:18:47;;;;;;;30.88;19.75;;;;;;;0.15;100.00;101058.94;10458868;28;20031;-67
2023/01/20 01:23:48;;;;;;;41.35;24.55;;;;;;;0.22;100.00;101060.13;10459104;28;20021;-68
2023/01/20 01:28:48;;;;;;;24.63;18.17;;;;;;;0.23;100.00;101062.66;10459508;28;20048;-68
2023/01/20 01:33:49;;;;;;;28.50;18.75;;;;;;;0.28;100.00;101067.59;10458670;28;20070;-68
2023/01/20 01:38:50;;;;;;;29.13;19.10;;;;;;;0.42;100.00;101067.31;10458482;28;20387;-68
2023/01/20 01:44:04;;;;;;;32.53;21.17;;;;;;;0.55;100.00;101082.28;10458836;28;20052;-68
2023/01/20 01:49:17;;;;;;;36.80;22.58;;;;;;;0.62;100.00;101070.97;10441664;28;20123;-68
2023/01/20 01:54:22;;;;;;;30.92;17.42;;;;;;;0.59;100.00;101076.56;10439719;28;20055;-68
2023/01/20 01:59:22;;;;;;;29.67;17.70;;;;;;;0.52;100.00;101072.72;10410008;28;20085;-68
2023/01/20 02:04:24;;;;;;;26.23;16.52;;;;;;;0.46;100.00;101084.72;10458155;28;20033;-68
2023/01/20 02:09:25;;;;;;;33.85;19.30;;;;;;;0.33;100.00;101088.53;10457329;28;20037;-68
2023/01/20 02:14:37;;;;;;;19.55;15.05;;;;;;;0.26;100.00;101090.88;10439564;28;20099;-68
2023/01/20 02:20:11;;;;;;;20.80;13.43;;;;;;;0.20;100.00;101083.38;10457208;28;20115;-68
2023/01/20 02:25:37;;;;;;;19.50;11.38;;;;;;;0.24;100.00;101092.81;10439432;28;20381;-68
2023/01/20 02:31:11;;;;;;;17.38;12.68;;;;;;;0.34;100.00;101090.22;10458127;28;20063;-68
2023/01/20 02:36:26;;;;;;;23.95;14.77;;;;;;;0.42;100.00;101087.78;10456376;28;20033;-68
2023/01/20 02:42:08;;;;;;;14.00;12.55;;;;;;;0.50;100.00;101080.00;10439585;28;20045;-68
2023/01/20 02:47:10;;;;;;;28.08;16.33;;;;;;;0.57;100.00;101080.31;10339541;28;20436;-68
2023/01/20 02:52:22;;;;;;;18.85;13.55;;;;;;;0.63;100.00;101080.66;10456674;28;20377;-68
2023/01/20 02:58:02;;;;;;;18.88;14.02;;;;;;;0.64;100.00;101087.69;10438289;28;20071;-68
2023/01/20 03:03:06;;;;;;;19.10;14.73;;;;;;;0.73;100.00;101086.03;10390128;28;20441;-68
2023/01/20 03:08:07;;;;;;;20.60;14.90;;;;;;;0.72;100.00;101087.03;10425811;28;20418;-68
2023/01/20 03:13:30;;;;;;;15.93;11.00;;;;;;;0.73;100.00;101080.72;10439201;28;20160;-68
2023/01/20 03:18:31;;;;;;;21.30;13.48;;;;;;;0.68;100.00;101082.94;10405431;28;20037;-68
2023/01/20 03:23:38;;;;;;;24.70;16.88;;;;;;;0.76;100.00;101074.28;10456061;28;20029;-68
2023/01/20 03:28:40;;;;;;;21.48;14.13;;;;;;;0.77;100.00;101076.00;10438605;28;20057;-68
2023/01/20 03:33:41;;;;;;;24.38;16.23;;;;;;;0.76;100.00;101067.13;10444977;28;20469;-68
2023/01/20 03:38:43;;;;;;;22.20;13.70;;;;;;;0.85;100.00;101073.50;10429347;28;20087;-68
2023/01/20 03:44:11;;;;;;;20.52;12.57;;;;;;;0.86;100.00;101075.19;10428286;28;20481;-68
2023/01/20 03:49:29;;;;;;;29.83;18.65;;;;;;;0.90;100.00;101071.31;10445742;28;20113;-68
2023/01/20 03:54:46;;;;;;;22.75;19.00;;;;;;;0.88;100.00;101074.09;10462251;28;20025;-67
2023/01/20 03:59:47;;;;;;;33.60;19.88;;;;;;;0.87;100.00;101082.25;10409794;28;20361;-67
2023/01/20 04:04:48;;;;;;;32.47;19.15;;;;;;;0.95;100.00;101084.25;10440561;28;20044;-67
2023/01/20 04:09:51;;;;;;;32.92;20.38;;;;;;;0.97;100.00;101082.28;10424556;28;20037;-67
2023/01/20 04:14:52;;;;;;;34.47;20.05;;;;;;;0.95;100.00;101078.91;10409668;28;20036;-68
2023/01/20 04:19:53;;;;;;;31.83;20.33;;;;;;;1.00;100.00;101071.38;10461605;28;20393;-67
2023/01/20 04:24:57;;;;;;;37.00;22.50;;;;;;;1.05;100.00;101074.47;10461387;28;20428;-67
2023/01/20 04:30:04;;;;;;;37.88;21.98;;;;;;;1.10;100.00;101073.09;10460673;28;20056;-68
2023/01/20 04:35:05;;;;;;;31.80;19.73;;;;;;;1.08;100.00;101087.53;10461138;28;20393;-68
2023/01/20 04:40:09;;;;;;;32.10;20.85;;;;;;;1.15;100.00;101086.91;10460263;28;20389;-68
2023/01/20 04:45:35;;;;;;;41.15;22.05;;;;;;;1.13;100.00;101088.84;10460275;28;20119;-68
2023/01/20 04:50:39;;;;;;;39.35;23.58;;;;;;;1.17;100.00;101098.25;10434596;28;20090;-69
2023/01/20 04:55:40;;;;;;;36.67;21.08;;;;;;;1.08;100.00;101109.72;10437970;28;20492;-69
2023/01/20 05:00:40;;;;;;;48.70;22.67;;;;;;;1.08;100.00;101116.88;10460734;28;20124;-68
2023/01/20 05:05:41;;;;;;;32.65;20.67;;;;;;;1.01;100.00;101129.88;10459331;28;20120;-69
2023/01/20 05:10:41;;;;;;;3.10;2.97;;;;;;;1.15;100.00;101136.75;10459050;28;20536;-69
2023/01/20 05:15:42;;;;;;;1.45;1.45;;;;;;;1.14;100.00;101125.19;10438140;28;20055;-69
2023/01/20 05:20:46;;;;;;;2.60;2.50;;;;;;;1.09;100.00;101129.25;10441138;28;20040;-69
2023/01/20 05:25:50;;;;;;;0.98;0.98;;;;;;;1.05;100.00;101125.97;10428321;28;20044;-69
2023/01/20 05:30:51;;;;;;;1.02;1.02;;;;;;;0.88;100.00;101124.75;10389716;28;20053;-69
2023/01/20 05:35:51;;;;;;;1.20;1.20;;;;;;;0.83;100.00;101116.31;10409993;28;20123;-69
2023/01/20 05:40:58;;;;;;;1.48;1.48;;;;;;;0.87;100.00;101125.72;10437646;28;20138;-68
2023/01/20 05:45:59;;;;;;;0.60;0.60;;;;;;;0.91;100.00;101120.97;10459395;28;20040;-69
2023/01/20 05:50:59;;;;;;;8.48;3.58;;;;;;;0.92;100.00;101120.00;10458618;28;20033;-69
2023/01/20 05:56:00;;;;;;;1.85;1.85;;;;;;;0.95;100.00;101118.91;10457623;28;20033;-69
2023/01/20 06:01:09;;;;;;;0.70;0.70;;;;;;;0.96;100.00;101129.44;10441201;28;20045;-69
2023/01/20 06:06:13;;;;;;;2.58;1.33;;;;;;;0.82;100.00;101130.59;10438769;28;20108;-69
2023/01/20 06:11:14;;;;;;;0.80;0.80;;;;;;;0.83;100.00;101126.09;10440130;28;20087;-69
2023/01/20 06:16:15;;;;;;;1.15;1.15;;;;;;;0.83;100.00;101112.78;10457416;28;20525;-69
2023/01/20 06:21:16;;;;;;;0.63;0.63;;;;;;;0.79;100.00;101103.34;10414573;28;20064;-69
2023/01/20 06:26:16;;;;;;;1.27;1.27;;;;;;;0.82;100.00;101095.09;10456941;28;20155;-69
2023/01/20 06:31:17;;;;;;;0.63;0.63;;;;;;;0.79;100.00;101104.19;10456870;28;20488;-69
2023/01/20 06:36:17;;;;;;;0.70;0.70;;;;;;;0.86;100.00;101101.84;10456841;28;20087;-69
2023/01/20 06:41:18;;;;;;;0.60;0.60;;;;;;;0.93;100.00;101093.22;10457175;28;20131;-69
2023/01/20 06:46:19;;;;;;;1.98;1.98;;;;;;;0.93;100.00;101111.03;10457059;28;20044;-69
2023/01/20 06:51:19;;;;;;;0.70;0.70;;;;;;;1.00;100.00;101125.53;10457251;28;20083;-69
2023/01/20 06:56:20;;;;;;;0.90;0.90;;;;;;;0.99;100.00;101147.00;10455889;28;20439;-68
2023/01/20 07:01:22;;;;;;;1.58;1.58;;;;;;;1.10;100.00;101161.13;10431470;28;20033;-69
2023/01/20 07:06:31;;;;;;;0.73;0.73;;;;;;;1.00;100.00;101148.69;10422036;28;20036;-69
2023/01/20 07:11:31;;;;;;;1.35;1.35;;;;;;;0.99;100.00;101149.66;10430177;28;20106;-69
2023/01/20 07:16:32;;;;;;;2.03;1.95;;;;;;;1.05;100.00;101149.97;10464575;28;20060;-69
2023/01/20 07:21:32;;;;;;;0.80;0.80;;;;;;;1.09;100.00;101140.75;10463432;28;20043;-69
2023/01/20 07:26:33;;;;;;;0.90;0.90;;;;;;;1.15;100.00;101142.91;10463300;28;20064;-69
2023/01/20 07:31:34;;;;;;;4.25;2.15;;;;;;;1.16;100.00;101141.94;10465507;28;20350;-69
2023/01/20 07:36:34;;;;;;;0.63;0.63;;;;;;;1.21;100.00;101148.69;10429823;28;20067;-69
2023/01/20 07:41:35;;;;;;;0.75;0.75;;;;;;;1.23;100.00;101152.06;10463948;28;20140;-69
2023/01/20 07:46:35;;;;;;;17.15;3.92;;;;;;;1.26;100.00;101157.16;10462799;28;20195;-70
2023/01/20 07:51:36;;;;;;;0.95;0.95;;;;;;;1.16;100.00;101149.94;10463400;28;20071;-70
2023/01/20 07:56:36;;;;;;;0.70;0.70;;;;;;;1.17;100.00;101183.63;10439722;28;20102;-69
2023/01/20 08:01:37;;;;;;;1.90;1.90;;;;;;;1.15;100.00;101193.59;10461732;28;20033;-70
2023/01/20 08:06:37;;;;;;;1.02;1.02;;;;;;;1.08;100.00;101219.06;10461215;28;20112;-70
2023/01/20 08:11:38;;;;;;;1.42;1.42;;;;;;;1.00;100.00;101220.69;10462524;28;20112;-70
2023/01/20 08:16:38;;;;;;;0.82;0.82;;;;;;;0.92;100.00;101239.97;10460608;28;20036;-70
2023/01/20 08:21:39;;;;;;;1.10;1.10;;;;;;;0.96;100.00;101232.56;10461633;28;20064;-69
2023/01/20 08:26:42;;;;;;;2.38;2.17;;;;;;;0.98;100.00;101239.47;10461278;28;20032;-69
2023/01/20 08:31:42;;;;;;;1.10;1.10;;;;;;;0.84;100.00;101242.44;10455764;28;20492;-69
2023/01/20 08:36:44;;;;;;;0.95;0.95;;;;;;;0.90;100.00;101252.63;10460894;28;20071;-70
2023/01/20 08:41:44;;;;;;;2.45;2.35;;;;;;;0.90;100.00;101261.44;10460616;28;20057;-70
2023/01/20 08:46:45;;;;;;;0.73;0.73;;;;;;;0.91;100.00;101264.97;10438555;28;20476;-70
2023/01/20 08:51:45;;;;;;;0.80;0.80;;;;;;;0.90;100.00;101258.78;10426317;28;20112;-69
2023/01/20 08:56:49;;;;;;;1.00;1.00;;;;;;;0.86;100.00;101248.47;10460083;28;20037;-69
2023/01/20 09:01:49;;;;;;;0.90;0.90;;;;;;;0.80;100.00;101252.53;10459966;28;20496;-69
2023/01/20 09:06:51;;;;;;;0.70;0.70;;;;;;;0.83;100.00;101241.59;10459585;28;20124;-69
2023/01/20 09:11:51;;;;;;;1.08;1.08;;;;;;;0.91;100.00;101249.81;10438899;28;20457;-69
2023/01/20 09:16:52;;;;;;;1.52;1.42;;;;;;;1.00;100.00;101256.19;10459217;28;20110;-69
2023/01/20 09:21:53;;;;;;;1.95;1.95;;;;;;;1.05;100.00;101259.31;10459227;28;20037;-69
2023/01/20 09:26:53;;;;;;;1.52;1.42;;;;;;;1.07;100.00;101268.06;10458160;28;20373;-69
2023/01/20 09:31:57;;;;;;;0.60;0.60;;;;;;;1.11;100.00;101266.81;10459483;28;20033;-69
2023/01/20 09:47:50;;;;;;;5.85;5.38;;;;;;;1.44;100.00;101294.34;10458270;28;20468;-69
2023/01/20 09:53:15;;;;;;;1.23;1.23;;;;;;;1.52;100.00;101297.19;10421065;28;20037;-69
2023/01/20 09:58:34;;;;;;;0.60;0.60;;;;;;;1.70;100.00;101299.31;10459268;28;20029;-69
2023/01/20 10:03:35;;;;;;;0.75;0.75;;;;;;;1.77;100.00;101295.13;10434490;28;20381;-69
2023/01/20 10:08:47;;;;;;;0.70;0.70;;;;;;;1.94;100.00;101299.03;10457932;28;20029;-69
2023/01/20 10:14:08;;;;;;;0.70;0.70;;;;;;;2.17;100.00;101299.69;10440075;28;20039;-69
2023/01/20 10:19:32;;;;;;;1.33;1.33;;;;;;;2.22;100.00;101297.50;10438975;28;20029;-69
2023/01/20 10:24:36;;;;;;;0.82;0.82;;;;;;;2.26;100.00;101291.72;10439800;28;20029;-69
2023/01/20 10:30:06;;;;;;;0.80;0.80;;;;;;;2.45;100.00;101288.28;10435425;28;20037;-69
2023/01/20 10:35:10;;;;;;;1.25;1.23;;;;;;;2.60;100.00;101279.91;10439534;28;20032;-69
2023/01/20 10:40:23;;;;;;;0.75;0.75;;;;;;;2.79;100.00;101282.63;10445434;28;20024;-69
2023/01/20 10:45:37;;;;;;;1.30;1.30;;;;;;;2.98;100.00;101276.47;10470304;28;20081;-69
2023/01/20 10:50:51;;;;;;;0.93;0.93;;;;;;;3.15;100.00;101281.13;10437554;28;20029;-69
2023/01/20 10:56:14;;;;;;;0.70;0.70;;;;;;;3.40;100.00;101276.22;10437111;28;20045;-69
2023/01/20 11:01:16;;;;;;;0.70;0.70;;;;;;;3.48;100.00;101285.22;10454787;28;20118;-69
2023/01/20 11:06:26;;;;;;;0.68;0.68;;;;;;;3.47;100.00;101261.25;10427587;28;20086;-69
2023/01/20 11:11:28;;;;;;;1.20;1.20;;;;;;;3.49;100.00;101272.69;10453387;28;20033;-69
2023/01/20 11:16:28;;;;;;;0.95;0.95;;;;;;;3.55;100.00;101290.00;10469962;28;20040;-70
2023/01/20 11:21:31;;;;;;;0.60;0.60;;;;;;;3.61;100.00;101286.78;10446092;28;20491;-70
2023/01/20 11:26:32;;;;;;;0.60;0.60;;;;;;;3.65;100.00;101278.28;10435388;28;20111;-70
2023/01/20 11:31:48;;;;;;;0.65;0.65;;;;;;;3.67;100.00;101270.97;10469693;28;20120;-70
2023/01/20 11:36:50;;;;;;;0.60;0.60;;;;;;;3.68;100.00;101285.19;10448273;28;20494;-70
2023/01/20 11:42:09;;;;;;;0.60;0.60;;;;;;;3.71;100.00;101276.88;10436130;28;20397;-70
2023/01/20 11:47:25;;;;;;;0.60;0.60;;;;;;;3.71;100.00;101271.53;10452746;28;20082;-70
2023/01/20 11:52:25;;;;;;;0.60;0.60;;;;;;;3.37;100.00;101239.84;10464974;28;20037;-70
2023/01/20 11:57:26;;;;;;;0.70;0.70;;;;;;;3.21;100.00;101279.72;10462428;28;20041;-70
2023/01/20 12:02:26;;;;;;;0.60;0.60;;;;;;;2.84;100.00;101288.44;10444506;28;20060;-71
2023/01/20 12:07:46;;;;;;;0.70;0.70;;;;;;;2.59;100.00;101318.34;10445458;28;20089;-70
2023/01/20 12:12:48;;;;;;;0.70;0.70;;;;;;;2.49;100.00;101319.13;10445393;28;20094;-70
2023/01/20 12:18:15;;;;;;;0.50;0.50;;;;;;;2.49;100.00;101302.22;10427672;28;20386;-70
2023/01/20 12:23:44;;;;;;;0.70;0.70;;;;;;;2.56;100.00;101282.00;10447126;28;20041;-70
2023/01/20 12:28:51;;;;;;;0.70;0.70;;;;;;;2.71;100.00;101282.47;10461325;28;20029;-70
2023/01/20 12:33:57;;;;;;;0.50;0.50;;;;;;;2.87;100.00;101287.28;10460680;28;20043;-70
2023/01/20 12:39:08;;;;;;;0.50;0.50;;;;;;;2.92;100.00;101291.25;10444367;28;20025;-69
2023/01/20 12:44:34;;;;;;;0.65;0.65;;;;;;;2.99;100.00;101288.84;10460068;28;20078;-69
2023/01/20 12:50:02;;;;;;;1.17;1.13;;;;;;;3.11;100.00;101298.44;10437745;28;20091;-69
2023/01/20 12:55:12;;;;;;;0.60;0.60;;;;;;;3.21;100.00;101293.09;10459744;28;20316;-70
2023/01/20 13:00:34;;;;;;;0.63;0.63;;;;;;;3.23;100.00;101291.97;10460700;28;20028;-70
2023/01/20 13:05:37;;;;;;;0.60;0.60;;;;;;;3.27;100.00;101297.91;10444850;28;20036;-69
2023/01/20 13:11:03;;;;;;;0.95;0.93;;;;;;;3.30;100.00;101288.75;10459739;28;20079;-69
2023/01/20 13:16:19;;;;;;;0.50;0.50;;;;;;;3.35;100.00;101300.72;10441726;28;20031;-69
2023/01/20 13:21:20;;;;;;;0.70;0.70;;;;;;;3.37;100.00;101300.56;10413237;28;20037;-70
2023/01/20 13:26:20;;;;;;;2.92;2.67;;;;;;;3.48;100.00;101303.97;10451620;28;20131;-70
2023/01/20 13:31:36;;;;;;;0.50;0.50;;;;;;;3.49;100.00;101313.69;10424745;28;20121;-69
2023/01/20 13:36:36;;;;;;;5.05;4.00;;;;;;;3.37;100.00;101317.47;10458782;28;20037;-70
2023/01/20 13:41:47;;;;;;;0.60;0.60;;;;;;;3.16;100.00;101308.72;10424048;28;20128;-69
2023/01/20 13:46:48;;;;;;;0.60;0.60;;;;;;;3.10;100.00;101322.69;10440700;28;20408;-69
2023/01/20 13:51:48;;;;;;;0.70;0.70;;;;;;;3.08;100.00;101316.63;10458176;28;20116;-70
2023/01/20 13:56:49;;;;;;;0.70;0.70;;;;;;;3.08;100.00;101312.09;10439829;28;20508;-69
2023/01/20 14:01:49;;;;;;;0.73;0.73;;;;;;;3.08;100.00;101312.09;10440339;28;20326;-70
2023/01/20 14:06:50;;;;;;;0.63;0.63;;;;;;;3.08;100.00;101317.47;10457358;28;20043;-71
2023/01/20 14:11:53;;;;;;;0.70;0.70;;;;;;;2.95;100.00;101323.06;10457443;28;20035;-70
2023/01/20 14:16:53;;;;;;;0.70;0.70;;;;;;;2.86;100.00;101339.09;10438932;28;20037;-69
2023/01/20 14:21:56;;;;;;;0.60;0.60;;;;;;;2.74;100.00;101349.91;10440679;28;20119;-69
2023/01/20 14:27:07;;;;;;;0.80;0.80;;;;;;;2.67;100.00;101358.59;10440181;28;20056;-69
2023/01/20 14:32:30;;;;;;;0.40;0.40;;;;;;;2.58;100.00;101373.59;10440169;28;20444;-70
2023/01/20 14:37:35;;;;;;;0.60;0.60;;;;;;;2.47;100.00;101393.25;10426266;28;20429;-69
2023/01/20 14:42:37;;;;;;;0.65;0.65;;;;;;;2.45;100.00;101399.72;10422376;28;20112;-69
2023/01/20 14:47:37;;;;;;;0.77;0.77;;;;;;;2.52;100.00;101420.47;10407704;28;20033;-69
2023/01/20 14:52:38;;;;;;;0.98;0.98;;;;;;;2.74;100.00;101426.59;10457240;28;20058;-70
2023/01/20 14:57:44;;;;;;;1.88;1.77;;;;;;;2.87;100.00;101442.41;10433418;28;20362;-69
2023/01/20 15:03:13;;;;;;;0.57;0.57;;;;;;;2.83;100.00;101460.56;10422941;28;20043;-70
2023/01/20 15:08:14;;;;;;;0.60;0.60;;;;;;;2.41;100.00;101470.47;10442761;28;20036;-69
2023/01/20 15:13:24;;;;;;;0.93;0.93;;;;;;;2.31;100.00;101494.44;10447541;28;20044;-69
2023/01/20 15:18:26;;;;;;;1.30;1.30;;;;;;;2.02;100.00;101512.91;10416412;28;20368;-69
2023/01/20 15:23:26;;;;;;;0.60;0.60;;;;;;;1.82;100.00;101522.56;10456348;28;20041;-69
2023/01/20 15:28:27;;;;;;;0.93;0.93;;;;;;;1.68;100.00;101541.53;10461883;28;20033;-69
2023/01/20 15:33:28;;;;;;;0.65;0.65;;;;;;;1.43;100.00;101554.16;10445300;28;20705;-69
2023/01/20 15:38:30;;;;;;;0.90;0.90;;;;;;;1.23;100.00;101573.56;10463312;28;20041;-69
2023/01/20 15:43:30;;;;;;;1.58;1.52;;;;;;;1.16;100.00;101594.56;10439307;28;20495;-69
2023/01/20 15:48:31;;;;;;;2.45;2.35;;;;;;;1.09;100.00;101594.19;10441247;28;20123;-69
2023/01/20 15:53:32;;;;;;;0.82;0.82;;;;;;;1.02;100.00;101602.75;10463108;28;20025;-69
2023/01/20 15:58:35;;;;;;;0.65;0.65;;;;;;;1.02;100.00;101629.44;10462706;28;20035;-69
2023/01/20 16:03:36;;;;;;;0.80;0.80;;;;;;;1.03;100.00;101642.66;10462975;28;20143;-69
2023/01/20 16:08:36;;;;;;;0.77;0.77;;;;;;;0.98;100.00;101654.63;10461711;28;20068;-69
2023/01/20 16:13:37;;;;;;;2.40;2.30;;;;;;;0.95;100.00;101679.72;10462121;28;20037;-69
2023/01/20 16:18:37;;;;;;;5.28;2.10;;;;;;;0.97;100.00;101687.63;10463477;28;20039;-69
2023/01/20 16:23:38;;;;;;;1.80;1.75;;;;;;;0.93;100.00;101714.50;10461723;28;20523;-69
2023/01/20 16:28:38;;;;;;;1.42;1.42;;;;;;;1.04;100.00;101743.03;10460772;28;20036;-69
2023/01/20 16:33:39;;;;;;;0.75;0.75;;;;;;;1.02;100.00;101747.66;10461558;28;20060;-69
2023/01/20 16:38:42;;;;;;;1.05;1.05;;;;;;;1.05;100.00;101757.22;10442357;28;20091;-69
2023/01/20 16:43:43;;;;;;;1.30;1.30;;;;;;;0.98;100.00;101785.31;10426472;28;20057;-69
2023/01/20 16:48:44;;;;;;;0.88;0.88;;;;;;;0.98;100.00;101803.97;10442956;28;20043;-69
2023/01/20 16:53:44;;;;;;;1.98;1.85;;;;;;;0.98;100.00;101815.50;10438238;28;20481;-68
2023/01/20 16:58:49;;;;;;;0.80;0.80;;;;;;;1.00;100.00;101823.41;10438567;28;20124;-69
2023/01/20 17:03:50;;;;;;;1.73;1.73;;;;;;;0.99;100.00;101832.34;10459959;28;20033;-69
2023/01/20 17:08:52;;;;;;;1.08;1.08;;;;;;;1.03;100.00;101857.84;10438981;28;20027;-68
2023/01/20 17:13:53;;;;;;;1.05;1.05;;;;;;;1.05;100.00;101864.75;10459575;28;20037;-68
2023/01/20 17:18:57;;;;;;;3.78;3.35;;;;;;;1.03;100.00;101866.69;10439103;28;20064;-69
2023/01/20 17:24:00;;;;;;;1.05;1.05;;;;;;;1.07;100.00;101888.66;10423372;28;20074;-68
2023/01/20 17:29:02;;;;;;;9.52;3.13;;;;;;;1.12;100.00;101903.38;10425166;28;20032;-68
2023/01/20 17:34:03;;;;;;;1.02;1.02;;;;;;;1.12;100.00;101922.06;10458796;28;20029;-69
2023/01/20 17:39:04;;;;;;;0.98;0.98;;;;;;;1.13;100.00;101928.22;10459352;28;20041;-68
2023/01/20 17:44:05;;;;;;;2.85;2.75;;;;;;;1.16;100.00;101954.69;10438654;28;20056;-68
2023/01/20 17:49:06;;;;;;;3.55;2.28;;;;;;;1.20;100.00;101969.50;10458195;28;20039;-68
2023/01/20 17:54:07;;;;;;;3.00;2.85;;;;;;;1.27;100.00;101983.25;10456771;28;20040;-68
2023/01/20 17:59:08;;;;;;;3.75;3.53;;;;;;;1.24;100.00;101999.47;10458014;28;20447;-68
2023/01/20 18:04:09;;;;;;;1.40;1.30;;;;;;;1.20;100.00;102008.69;10458904;28;20111;-68
2023/01/20 18:09:13;;;;;;;0.52;0.52;;;;;;;1.25;100.00;102017.22;10439360;28;20109;-68
2023/01/20 18:14:14;;;;;;;1.30;1.30;;;;;;;1.20;100.00;102025.53;10431849;28;20071;-68
2023/01/20 18:19:15;;;;;;;4.18;2.35;;;;;;;1.23;100.00;102040.47;10457926;28;20029;-68
2023/01/20 18:24:15;;;;;;;2.03;1.92;;;;;;;1.20;100.00;102048.69;10457047;28;20111;-69
2023/01/20 18:29:16;;;;;;;0.95;0.95;;;;;;;1.25;100.00;102059.91;10432582;28;20416;-68
2023/01/20 18:34:16;;;;;;;4.85;2.60;;;;;;;1.26;100.00;102069.63;10422926;28;20033;-67
2023/01/20 18:39:18;;;;;;;0.80;0.80;;;;;;;1.24;100.00;102076.84;10431356;28;20041;-68
2023/01/20 18:44:19;;;;;;;1.98;1.88;;;;;;;1.20;100.00;102096.72;10422432;28;20053;-68
2023/01/20 18:49:19;;;;;;;1.75;1.75;;;;;;;1.13;100.00;102107.81;10459314;28;20071;-68
2023/01/20 18:54:20;;;;;;;1.25;1.25;;;;;;;1.04;100.00;102118.28;10457325;28;20098;-68
2023/01/20 18:59:20;;;;;;;1.20;1.20;;;;;;;1.04;100.00;102123.59;10456198;28;20057;-68
2023/01/20 19:04:21;;;;;;;0.70;0.70;;;;;;;1.09;100.00;102137.50;10465139;28;20362;-68
2023/01/20 19:09:21;;;;;;;0.60;0.60;;;;;;;1.00;100.00;102148.78;10463930;28;20025;-68
2023/01/20 19:14:22;;;;;;;1.70;1.70;;;;;;;0.81;100.00;102155.38;10456448;28;20116;-68
2023/01/20 19:19:22;;;;;;;0.88;0.88;;;;;;;0.71;100.00;102170.28;10464722;28;20029;-68
2023/01/20 19:24:27;;;;;;;1.15;1.15;;;;;;;0.61;100.00;102185.19;10441009;28;20056;-68
2023/01/20 19:29:29;;;;;;;2.85;2.75;;;;;;;0.62;100.00;102200.22;10463808;28;20119;-68
2023/01/20 19:34:29;;;;;;;2.00;1.90;;;;;;;0.81;100.00;102214.03;10446432;28;20086;-68
2023/01/20 19:39:30;;;;;;;0.90;0.90;;;;;;;0.87;100.00;102212.78;10464105;28;20057;-68
2023/01/20 19:44:30;;;;;;;0.60;0.60;;;;;;;0.83;100.00;102228.13;10462347;28;20052;-68
2023/01/20 19:49:31;;;;;;;1.35;1.35;;;;;;;0.64;100.00;102233.81;10462662;28;20170;-69
2023/01/20 19:54:32;;;;;;;1.60;1.52;;;;;;;0.48;100.00;102249.09;10462294;28;20124;-68
2023/01/20 19:59:32;;;;;;;1.02;1.02;;;;;;;0.43;100.00;102257.38;10439402;28;20106;-68
2023/01/20 20:04:33;;;;;;;1.45;1.45;;;;;;;0.36;100.00;102263.19;10462388;28;20138;-68
2023/01/20 20:09:34;;;;;;;0.80;0.80;;;;;;;0.31;100.00;102268.81;10461672;28;20037;-69
2023/01/20 20:14:34;;;;;;;1.48;1.48;;;;;;;0.28;100.00;102286.78;10460798;28;20033;-68
2023/01/20 20:19:35;;;;;;;0.60;0.60;;;;;;;0.21;100.00;102296.97;10461988;28;20037;-68
2023/01/20 20:24:35;;;;;;;8.38;3.20;;;;;;;0.18;100.00;102306.00;10461629;28;20049;-68
2023/01/20 20:29:36;;;;;;;59.17;35.40;;;;;;;0.13;100.00;102309.94;10461553;28;20099;-68
2023/01/20 20:34:36;;;;;;;56.88;36.00;;;;;;;0.07;100.00;102321.81;10461839;28;20068;-68
2023/01/20 20:39:37;;;;;;;62.25;35.95;;;;;;;0.04;100.00;102322.00;10438206;28;20064;-68
2023/01/20 20:44:37;;;;;;;63.08;40.80;;;;;;;0.00;100.00;102328.47;10438597;28;20061;-68
2023/01/20 20:49:38;;;;;;;65.57;34.05;;;;;;;-0.05;100.00;102346.53;10460729;28;20453;-68
2023/01/20 20:54:38;;;;;;;63.05;37.05;;;;;;;-0.08;100.00;102360.03;10460729;28;20033;-68
2023/01/20 20:59:39;;;;;;;71.93;41.88;;;;;;;-0.12;100.00;102372.69;10437906;28;20032;-68
2023/01/20 21:04:39;;;;;;;67.55;37.53;;;;;;;-0.10;100.00;102391.22;10423348;28;20124;-68
2023/01/20 21:09:40;;;;;;;66.40;44.05;;;;;;;-0.15;100.00;102410.13;10459919;28;20436;-69
2023/01/20 21:14:40;;;;;;;83.97;40.25;;;;;;;-0.19;100.00;102413.06;10454100;28;20037;-68
2023/01/20 21:19:40;;;;;;;81.35;40.65;;;;;;;-0.22;100.00;102413.22;10459568;28;20065;-68
2023/01/20 21:24:41;;;;;;;65.82;42.42;;;;;;;-0.26;100.00;102418.72;10436890;28;20387;-68
2023/01/20 21:29:43;;;;;;;55.95;37.38;;;;;;;-0.32;100.00;102436.88;10459682;28;20033;-68
2023/01/20 21:34:43;;;;;;;71.43;39.63;;;;;;;-0.31;100.00;102450.09;10459394;28;20087;-68
2023/01/20 21:39:44;;;;;;;64.53;41.55;;;;;;;-0.35;100.00;102455.69;10458714;28;20115;-68
2023/01/20 21:44:44;;;;;;;81.30;44.20;;;;;;;-0.40;100.00;102479.91;10458986;28;20466;-68
2023/01/20 21:55:04;;;;;;;72.28;39.67;;;;;;;-0.43;100.00;102508.50;10457855;28;20397;-69
2023/01/20 22:00:06;;;;;;;63.85;34.17;;;;;;;-0.61;100.00;102534.31;10458023;28;20033;-68
2023/01/20 22:05:07;;;;;;;66.57;35.13;;;;;;;-0.65;100.00;102546.09;10423106;28;20044;-68
2023/01/20 22:10:08;;;;;;;69.93;37.17;;;;;;;-0.74;100.00;102553.63;10458304;28;20091;-69
2023/01/20 22:15:09;;;;;;;53.53;33.53;;;;;;;-0.78;100.00;102560.06;10457225;28;20036;-68
2023/01/20 22:20:10;;;;;;;61.78;36.88;;;;;;;-0.66;100.00;102558.53;10457462;28;20139;-69
2023/01/20 22:25:10;;;;;;;70.47;37.53;;;;;;;-0.56;100.00;102559.75;10439044;28;20025;-68
2023/01/20 22:30:11;;;;;;;65.15;35.70;;;;;;;-0.67;100.00;102572.78;10456525;28;20045;-69
2023/01/20 22:35:11;;;;;;;55.88;30.45;;;;;;;-0.70;100.00;102583.59;10438265;28;20435;-69
2023/01/20 22:40:15;;;;;;;69.95;39.05;;;;;;;-0.75;100.00;102591.81;10421931;28;20029;-68
2023/01/20 22:45:17;;;;;;;63.47;39.78;;;;;;;-0.82;100.00;102592.22;10459186;28;20056;-69
2023/01/20 22:50:18;;;;;;;63.78;35.78;;;;;;;-0.84;100.00;102592.28;10447305;28;20051;-68
2023/01/20 22:55:18;;;;;;;53.28;33.13;;;;;;;-0.97;100.00;102604.53;10431409;28;20128;-68
2023/01/20 23:00:19;;;;;;;66.38;31.50;;;;;;;-1.02;100.00;102622.50;10455928;28;20396;-68
2023/01/20 23:05:19;;;;;;;61.72;36.55;;;;;;;-1.04;100.00;102627.06;10456678;28;20148;-68
2023/01/20 23:10:53;;;;;;;54.05;33.05;;;;;;;-1.04;100.00;102621.75;10455576;28;20076;-68
2023/01/20 23:15:46;;;;;;;;;;;;;;;-1.03;100.00;102628.78;10455393;28;20080;-68
2023/01/20 23:20:48;;;;;;;54.17;34.63;;;;;;;-1.08;100.00;102630.84;10456842;28;19956;-69
2023/01/20 23:25:48;;;;;;;60.72;36.35;;;;;;;-1.03;100.00;102640.28;10419068;28;20061;-68